sensor_id;sensor_type;location;lat;lon;timestamp;P1;durP1;ratioP1;P2;durP2;ratioP2
19171;SDS011;9718;52.200;21.052;2022-11-20T00:01:14;40.20;;;16.93;;
19171;SDS011;9718;52.200;21.052;2022-11-20T00:03:44;35.67;;;15.67;;
19171;SDS011;9718;52.200;21.052;2022-11-20T00:06:13;39.57;;;15.20;;
19171;SDS011;9718;52.200;21.052;2022-11-20T00:08:44;37.77;;;16.57;;
19171;SDS011;9718;52.200;21.052;2022-11-20T00:11:12;42.90;;;17.13;;
19171;SDS011;9718;52.200;21.052;2022-11-20T00:13:52;38.83;;;16.10;;
19171;SDS011;9718;52.200;21.052;2022-11-20T00:16:22;35.80;;;16.33;;
19171;SDS011;9718;52.200;21.052;2022-11-20T00:18:51;51.40;;;19.03;;
19171;SDS011;9718;52.200;21.052;2022-11-20T00:21:20;42.77;;;15.63;;
19171;SDS011;9718;52.200;21.052;2022-11-20T00:23:50;40.23;;;16.40;;
19171;SDS011;9718;52.200;21.052;2022-11-20T00:26:21;42.07;;;18.13;;
19171;SDS011;9718;52.200;21.052;2022-11-20T00:28:52;41.67;;;16.50;;
19171;SDS011;9718;52.200;21.052;2022-11-20T00:31:23;32.40;;;14.07;;
19171;SDS011;9718;52.200;21.052;2022-11-20T00:33:52;37.57;;;15.67;;
19171;SDS011;9718;52.200;21.052;2022-11-20T00:36:21;38.57;;;16.07;;
19171;SDS011;9718;52.200;21.052;2022-11-20T00:38:52;34.80;;;15.83;;
19171;SDS011;9718;52.200;21.052;2022-11-20T00:41:24;42.17;;;16.33;;
19171;SDS011;9718;52.200;21.052;2022-11-20T00:43:53;48.93;;;17.40;;
19171;SDS011;9718;52.200;21.052;2022-11-20T00:46:22;39.03;;;16.87;;
19171;SDS011;9718;52.200;21.052;2022-11-20T00:48:52;41.67;;;17.80;;
19171;SDS011;9718;52.200;21.052;2022-11-20T00:51:20;49.53;;;18.40;;
19171;SDS011;9718;52.200;21.052;2022-11-20T00:53:49;40.87;;;15.73;;
19171;SDS011;9718;52.200;21.052;2022-11-20T00:56:20;41.80;;;17.53;;
19171;SDS011;9718;52.200;21.052;2022-11-20T00:58:48;45.50;;;18.93;;
19171;SDS011;9718;52.200;21.052;2022-11-20T01:01:16;47.30;;;17.87;;
19171;SDS011;9718;52.200;21.052;2022-11-20T01:03:47;43.63;;;17.73;;
19171;SDS011;9718;52.200;21.052;2022-11-20T01:08:48;39.10;;;17.10;;
19171;SDS011;9718;52.200;21.052;2022-11-20T01:11:18;47.20;;;18.43;;
19171;SDS011;9718;52.200;21.052;2022-11-20T01:13:50;45.40;;;16.50;;
19171;SDS011;9718;52.200;21.052;2022-11-20T01:16:20;44.37;;;18.70;;
19171;SDS011;9718;52.200;21.052;2022-11-20T01:18:52;38.20;;;16.17;;
19171;SDS011;9718;52.200;21.052;2022-11-20T01:21:27;41.03;;;17.23;;
19171;SDS011;9718;52.200;21.052;2022-11-20T01:24:04;42.90;;;17.33;;
19171;SDS011;9718;52.200;21.052;2022-11-20T01:26:35;35.73;;;16.17;;
19171;SDS011;9718;52.200;21.052;2022-11-20T01:29:05;39.93;;;16.60;;
19171;SDS011;9718;52.200;21.052;2022-11-20T01:31:36;43.27;;;17.43;;
19171;SDS011;9718;52.200;21.052;2022-11-20T01:34:08;38.57;;;17.83;;
19171;SDS011;9718;52.200;21.052;2022-11-20T01:36:37;36.73;;;16.57;;
19171;SDS011;9718;52.200;21.052;2022-11-20T01:39:09;33.50;;;15.80;;
19171;SDS011;9718;52.200;21.052;2022-11-20T01:41:42;38.33;;;17.30;;
19171;SDS011;9718;52.200;21.052;2022-11-20T01:52:55;43.40;;;17.67;;
19171;SDS011;9718;52.200;21.052;2022-11-20T01:55:32;41.70;;;17.90;;
19171;SDS011;9718;52.200;21.052;2022-11-20T01:58:04;42.10;;;18.33;;
19171;SDS011;9718;52.200;21.052;2022-11-20T02:00:32;47.33;;;18.83;;
19171;SDS011;9718;52.200;21.052;2022-11-20T02:03:10;39.73;;;18.23;;
19171;SDS011;9718;52.200;21.052;2022-11-20T02:08:28;42.37;;;18.57;;
19171;SDS011;9718;52.200;21.052;2022-11-20T02:10:59;43.87;;;16.90;;
19171;SDS011;9718;52.200;21.052;2022-11-20T02:13:27;36.00;;;15.70;;
19171;SDS011;9718;52.200;21.052;2022-11-20T02:16:18;40.23;;;17.70;;
19171;SDS011;9718;52.200;21.052;2022-11-20T02:18:50;36.70;;;17.37;;
19171;SDS011;9718;52.200;21.052;2022-11-20T02:24:15;43.00;;;17.57;;
19171;SDS011;9718;52.200;21.052;2022-11-20T02:32:31;42.30;;;16.33;;
19171;SDS011;9718;52.200;21.052;2022-11-20T02:37:48;39.07;;;15.40;;
19171;SDS011;9718;52.200;21.052;2022-11-20T02:40:19;39.77;;;16.43;;
19171;SDS011;9718;52.200;21.052;2022-11-20T02:42:51;38.13;;;17.07;;
19171;SDS011;9718;52.200;21.052;2022-11-20T02:45:20;40.50;;;16.87;;
19171;SDS011;9718;52.200;21.052;2022-11-20T02:47:50;40.70;;;15.50;;
19171;SDS011;9718;52.200;21.052;2022-11-20T02:50:18;50.93;;;17.97;;
19171;SDS011;9718;52.200;21.052;2022-11-20T02:52:46;41.13;;;16.27;;
19171;SDS011;9718;52.200;21.052;2022-11-20T02:55:14;41.97;;;16.90;;
19171;SDS011;9718;52.200;21.052;2022-11-20T02:57:41;40.27;;;16.13;;
19171;SDS011;9718;52.200;21.052;2022-11-20T03:00:10;39.93;;;17.20;;
19171;SDS011;9718;52.200;21.052;2022-11-20T03:02:38;35.07;;;15.50;;
19171;SDS011;9718;52.200;21.052;2022-11-20T03:05:08;44.97;;;17.03;;
19171;SDS011;9718;52.200;21.052;2022-11-20T03:07:35;46.23;;;16.77;;
19171;SDS011;9718;52.200;21.052;2022-11-20T03:10:04;45.20;;;16.70;;
19171;SDS011;9718;52.200;21.052;2022-11-20T03:12:32;47.73;;;18.23;;
19171;SDS011;9718;52.200;21.052;2022-11-20T03:15:00;42.57;;;16.97;;
19171;SDS011;9718;52.200;21.052;2022-11-20T03:17:27;44.87;;;17.70;;
19171;SDS011;9718;52.200;21.052;2022-11-20T03:19:56;42.40;;;17.77;;
19171;SDS011;9718;52.200;21.052;2022-11-20T03:22:24;40.40;;;15.83;;
19171;SDS011;9718;52.200;21.052;2022-11-20T03:24:52;43.23;;;17.87;;
19171;SDS011;9718;52.200;21.052;2022-11-20T03:27:20;50.43;;;19.50;;
19171;SDS011;9718;52.200;21.052;2022-11-20T03:29:49;38.17;;;16.87;;
19171;SDS011;9718;52.200;21.052;2022-11-20T03:32:17;49.57;;;21.27;;
19171;SDS011;9718;52.200;21.052;2022-11-20T03:34:44;37.17;;;17.07;;
19171;SDS011;9718;52.200;21.052;2022-11-20T03:37:11;37.27;;;16.80;;
19171;SDS011;9718;52.200;21.052;2022-11-20T03:39:39;39.33;;;16.73;;
19171;SDS011;9718;52.200;21.052;2022-11-20T03:42:08;38.30;;;17.30;;
19171;SDS011;9718;52.200;21.052;2022-11-20T03:44:55;41.53;;;17.23;;
19171;SDS011;9718;52.200;21.052;2022-11-20T03:47:24;43.63;;;18.50;;
19171;SDS011;9718;52.200;21.052;2022-11-20T03:49:52;47.40;;;17.20;;
19171;SDS011;9718;52.200;21.052;2022-11-20T03:52:19;54.70;;;20.83;;
19171;SDS011;9718;52.200;21.052;2022-11-20T03:54:46;35.67;;;17.60;;
19171;SDS011;9718;52.200;21.052;2022-11-20T03:57:14;42.20;;;17.50;;
19171;SDS011;9718;52.200;21.052;2022-11-20T03:59:41;47.60;;;18.47;;
19171;SDS011;9718;52.200;21.052;2022-11-20T04:02:10;43.70;;;17.17;;
19171;SDS011;9718;52.200;21.052;2022-11-20T04:04:37;38.60;;;17.30;;
19171;SDS011;9718;52.200;21.052;2022-11-20T04:07:05;35.20;;;16.10;;
19171;SDS011;9718;52.200;21.052;2022-11-20T04:09:34;40.77;;;16.47;;
19171;SDS011;9718;52.200;21.052;2022-11-20T04:12:01;34.43;;;15.87;;
19171;SDS011;9718;52.200;21.052;2022-11-20T04:14:29;46.63;;;17.37;;
19171;SDS011;9718;52.200;21.052;2022-11-20T04:16:56;39.43;;;16.67;;
19171;SDS011;9718;52.200;21.052;2022-11-20T04:19:24;40.73;;;16.77;;
19171;SDS011;9718;52.200;21.052;2022-11-20T04:21:51;44.13;;;17.30;;
19171;SDS011;9718;52.200;21.052;2022-11-20T04:24:19;41.23;;;15.37;;
19171;SDS011;9718;52.200;21.052;2022-11-20T04:26:47;44.07;;;16.13;;
19171;SDS011;9718;52.200;21.052;2022-11-20T04:29:14;39.20;;;15.60;;
19171;SDS011;9718;52.200;21.052;2022-11-20T04:31:43;40.77;;;16.10;;
19171;SDS011;9718;52.200;21.052;2022-11-20T04:34:10;40.90;;;16.40;;
19171;SDS011;9718;52.200;21.052;2022-11-20T04:36:41;39.27;;;17.07;;
19171;SDS011;9718;52.200;21.052;2022-11-20T04:39:12;37.87;;;16.97;;
19171;SDS011;9718;52.200;21.052;2022-11-20T04:41:45;36.07;;;14.57;;
19171;SDS011;9718;52.200;21.052;2022-11-20T04:44:13;37.07;;;14.53;;
19171;SDS011;9718;52.200;21.052;2022-11-20T04:46:41;33.57;;;15.23;;
19171;SDS011;9718;52.200;21.052;2022-11-20T04:49:11;32.23;;;13.53;;
19171;SDS011;9718;52.200;21.052;2022-11-20T04:51:39;35.60;;;15.43;;
19171;SDS011;9718;52.200;21.052;2022-11-20T04:54:06;45.57;;;17.93;;
19171;SDS011;9718;52.200;21.052;2022-11-20T04:56:35;43.50;;;17.77;;
19171;SDS011;9718;52.200;21.052;2022-11-20T04:59:03;31.20;;;14.27;;
19171;SDS011;9718;52.200;21.052;2022-11-20T05:01:31;39.10;;;14.77;;
19171;SDS011;9718;52.200;21.052;2022-11-20T05:03:59;34.57;;;13.00;;
19171;SDS011;9718;52.200;21.052;2022-11-20T05:06:27;30.00;;;12.73;;
19171;SDS011;9718;52.200;21.052;2022-11-20T05:08:55;35.43;;;15.67;;
19171;SDS011;9718;52.200;21.052;2022-11-20T05:11:23;35.90;;;15.23;;
19171;SDS011;9718;52.200;21.052;2022-11-20T05:13:51;39.67;;;15.73;;
19171;SDS011;9718;52.200;21.052;2022-11-20T05:16:20;33.17;;;13.63;;
19171;SDS011;9718;52.200;21.052;2022-11-20T05:18:50;43.57;;;14.80;;
19171;SDS011;9718;52.200;21.052;2022-11-20T05:21:18;41.43;;;14.77;;
19171;SDS011;9718;52.200;21.052;2022-11-20T05:23:47;36.23;;;14.43;;
19171;SDS011;9718;52.200;21.052;2022-11-20T05:26:17;44.93;;;17.07;;
19171;SDS011;9718;52.200;21.052;2022-11-20T05:28:49;38.03;;;14.87;;
19171;SDS011;9718;52.200;21.052;2022-11-20T05:31:18;35.60;;;15.47;;
19171;SDS011;9718;52.200;21.052;2022-11-20T05:33:52;32.03;;;13.80;;
19171;SDS011;9718;52.200;21.052;2022-11-20T05:36:21;33.57;;;13.93;;
19171;SDS011;9718;52.200;21.052;2022-11-20T05:38:51;33.73;;;15.00;;
19171;SDS011;9718;52.200;21.052;2022-11-20T05:41:27;36.90;;;15.60;;
19171;SDS011;9718;52.200;21.052;2022-11-20T05:43:55;35.70;;;13.87;;
19171;SDS011;9718;52.200;21.052;2022-11-20T05:46:25;36.17;;;16.47;;
19171;SDS011;9718;52.200;21.052;2022-11-20T05:48:55;32.20;;;14.33;;
19171;SDS011;9718;52.200;21.052;2022-11-20T05:51:24;35.93;;;13.77;;
19171;SDS011;9718;52.200;21.052;2022-11-20T05:53:57;31.63;;;13.60;;
19171;SDS011;9718;52.200;21.052;2022-11-20T05:56:26;36.57;;;15.07;;
19171;SDS011;9718;52.200;21.052;2022-11-20T05:58:54;37.43;;;14.50;;
19171;SDS011;9718;52.200;21.052;2022-11-20T06:01:23;37.10;;;14.07;;
19171;SDS011;9718;52.200;21.052;2022-11-20T06:03:52;34.20;;;15.37;;
19171;SDS011;9718;52.200;21.052;2022-11-20T06:06:20;43.83;;;17.33;;
19171;SDS011;9718;52.200;21.052;2022-11-20T06:08:48;38.43;;;14.50;;
19171;SDS011;9718;52.200;21.052;2022-11-20T06:11:16;61.20;;;21.53;;
19171;SDS011;9718;52.200;21.052;2022-11-20T06:13:44;38.70;;;16.23;;
19171;SDS011;9718;52.200;21.052;2022-11-20T06:16:14;36.30;;;15.63;;
19171;SDS011;9718;52.200;21.052;2022-11-20T06:18:44;25.97;;;12.53;;
19171;SDS011;9718;52.200;21.052;2022-11-20T06:21:13;40.50;;;15.13;;
19171;SDS011;9718;52.200;21.052;2022-11-20T06:23:48;30.67;;;13.23;;
19171;SDS011;9718;52.200;21.052;2022-11-20T06:26:24;28.83;;;11.20;;
19171;SDS011;9718;52.200;21.052;2022-11-20T06:28:53;36.10;;;11.67;;
19171;SDS011;9718;52.200;21.052;2022-11-20T06:31:23;28.13;;;12.67;;
19171;SDS011;9718;52.200;21.052;2022-11-20T06:33:52;34.07;;;14.30;;
19171;SDS011;9718;52.200;21.052;2022-11-20T06:36:21;37.80;;;13.20;;
19171;SDS011;9718;52.200;21.052;2022-11-20T06:38:49;34.97;;;15.47;;
19171;SDS011;9718;52.200;21.052;2022-11-20T06:41:18;31.80;;;14.80;;
19171;SDS011;9718;52.200;21.052;2022-11-20T06:43:47;32.07;;;14.03;;
19171;SDS011;9718;52.200;21.052;2022-11-20T06:46:15;33.10;;;13.77;;
19171;SDS011;9718;52.200;21.052;2022-11-20T06:48:47;40.93;;;15.67;;
19171;SDS011;9718;52.200;21.052;2022-11-20T06:51:16;37.83;;;16.13;;
19171;SDS011;9718;52.200;21.052;2022-11-20T06:53:44;38.77;;;16.40;;
19171;SDS011;9718;52.200;21.052;2022-11-20T06:56:11;39.03;;;16.73;;
19171;SDS011;9718;52.200;21.052;2022-11-20T06:58:39;41.03;;;16.73;;
19171;SDS011;9718;52.200;21.052;2022-11-20T07:01:07;36.07;;;15.87;;
19171;SDS011;9718;52.200;21.052;2022-11-20T07:03:38;43.70;;;18.73;;
19171;SDS011;9718;52.200;21.052;2022-11-20T07:06:07;43.43;;;19.37;;
19171;SDS011;9718;52.200;21.052;2022-11-20T07:08:35;46.37;;;17.97;;
19171;SDS011;9718;52.200;21.052;2022-11-20T07:11:03;37.13;;;17.83;;
19171;SDS011;9718;52.200;21.052;2022-11-20T07:13:32;48.30;;;17.33;;
19171;SDS011;9718;52.200;21.052;2022-11-20T07:16:01;36.27;;;17.90;;
19171;SDS011;9718;52.200;21.052;2022-11-20T07:18:30;43.17;;;18.07;;
19171;SDS011;9718;52.200;21.052;2022-11-20T07:21:02;34.50;;;16.57;;
19171;SDS011;9718;52.200;21.052;2022-11-20T07:23:32;49.17;;;19.07;;
19171;SDS011;9718;52.200;21.052;2022-11-20T07:26:04;43.17;;;18.20;;
19171;SDS011;9718;52.200;21.052;2022-11-20T07:28:32;46.70;;;20.17;;
19171;SDS011;9718;52.200;21.052;2022-11-20T07:31:00;47.00;;;19.10;;
19171;SDS011;9718;52.200;21.052;2022-11-20T07:33:27;45.93;;;18.23;;
19171;SDS011;9718;52.200;21.052;2022-11-20T07:35:55;40.07;;;18.80;;
19171;SDS011;9718;52.200;21.052;2022-11-20T07:38:25;43.50;;;18.30;;
19171;SDS011;9718;52.200;21.052;2022-11-20T07:40:56;38.03;;;17.77;;
19171;SDS011;9718;52.200;21.052;2022-11-20T07:43:24;46.07;;;18.23;;
19171;SDS011;9718;52.200;21.052;2022-11-20T07:45:54;41.27;;;19.47;;
19171;SDS011;9718;52.200;21.052;2022-11-20T07:48:23;43.40;;;18.60;;
19171;SDS011;9718;52.200;21.052;2022-11-20T07:50:54;43.93;;;20.13;;
19171;SDS011;9718;52.200;21.052;2022-11-20T07:53:24;39.67;;;19.27;;
19171;SDS011;9718;52.200;21.052;2022-11-20T07:55:52;45.00;;;20.73;;
19171;SDS011;9718;52.200;21.052;2022-11-20T07:58:20;43.70;;;19.50;;
19171;SDS011;9718;52.200;21.052;2022-11-20T08:00:48;39.27;;;19.03;;
19171;SDS011;9718;52.200;21.052;2022-11-20T08:03:16;40.37;;;19.07;;
19171;SDS011;9718;52.200;21.052;2022-11-20T08:05:51;37.83;;;17.77;;
19171;SDS011;9718;52.200;21.052;2022-11-20T08:08:18;43.90;;;18.93;;
19171;SDS011;9718;52.200;21.052;2022-11-20T08:10:47;36.00;;;17.80;;
19171;SDS011;9718;52.200;21.052;2022-11-20T08:13:14;39.07;;;17.87;;
19171;SDS011;9718;52.200;21.052;2022-11-20T08:16:01;39.07;;;19.13;;
19171;SDS011;9718;52.200;21.052;2022-11-20T08:18:28;40.27;;;18.90;;
19171;SDS011;9718;52.200;21.052;2022-11-20T08:21:03;38.90;;;18.67;;
19171;SDS011;9718;52.200;21.052;2022-11-20T08:23:31;40.40;;;18.73;;
19171;SDS011;9718;52.200;21.052;2022-11-20T08:25:59;42.00;;;19.07;;
19171;SDS011;9718;52.200;21.052;2022-11-20T08:28:27;40.80;;;18.53;;
19171;SDS011;9718;52.200;21.052;2022-11-20T08:30:59;41.77;;;19.63;;
19171;SDS011;9718;52.200;21.052;2022-11-20T08:33:27;40.67;;;19.37;;
19171;SDS011;9718;52.200;21.052;2022-11-20T08:36:02;39.47;;;19.23;;
19171;SDS011;9718;52.200;21.052;2022-11-20T08:38:32;39.07;;;19.17;;
19171;SDS011;9718;52.200;21.052;2022-11-20T08:41:00;44.97;;;21.40;;
19171;SDS011;9718;52.200;21.052;2022-11-20T08:43:48;38.63;;;19.70;;
19171;SDS011;9718;52.200;21.052;2022-11-20T08:46:17;43.13;;;20.50;;
19171;SDS011;9718;52.200;21.052;2022-11-20T08:48:44;43.13;;;19.97;;
19171;SDS011;9718;52.200;21.052;2022-11-20T08:51:12;44.27;;;20.83;;
19171;SDS011;9718;52.200;21.052;2022-11-20T08:53:41;41.60;;;19.77;;
19171;SDS011;9718;52.200;21.052;2022-11-20T08:56:10;38.37;;;19.80;;
19171;SDS011;9718;52.200;21.052;2022-11-20T08:58:38;42.23;;;19.47;;
19171;SDS011;9718;52.200;21.052;2022-11-20T09:01:26;40.47;;;20.27;;
19171;SDS011;9718;52.200;21.052;2022-11-20T09:03:57;42.20;;;20.17;;
19171;SDS011;9718;52.200;21.052;2022-11-20T09:06:26;37.93;;;19.97;;
19171;SDS011;9718;52.200;21.052;2022-11-20T09:08:54;39.27;;;19.40;;
19171;SDS011;9718;52.200;21.052;2022-11-20T09:11:31;36.50;;;19.87;;
19171;SDS011;9718;52.200;21.052;2022-11-20T09:14:03;37.30;;;19.13;;
19171;SDS011;9718;52.200;21.052;2022-11-20T09:16:32;42.10;;;19.80;;
19171;SDS011;9718;52.200;21.052;2022-11-20T09:19:00;40.83;;;21.00;;
19171;SDS011;9718;52.200;21.052;2022-11-20T09:21:48;37.43;;;19.00;;
19171;SDS011;9718;52.200;21.052;2022-11-20T09:24:15;38.87;;;19.30;;
19171;SDS011;9718;52.200;21.052;2022-11-20T09:26:43;40.27;;;20.03;;
19171;SDS011;9718;52.200;21.052;2022-11-20T09:29:11;36.67;;;18.77;;
19171;SDS011;9718;52.200;21.052;2022-11-20T09:31:38;39.57;;;20.87;;
19171;SDS011;9718;52.200;21.052;2022-11-20T09:34:06;42.60;;;20.73;;
19171;SDS011;9718;52.200;21.052;2022-11-20T09:36:33;40.67;;;20.27;;
19171;SDS011;9718;52.200;21.052;2022-11-20T09:39:00;42.10;;;19.80;;
19171;SDS011;9718;52.200;21.052;2022-11-20T09:47:01;41.10;;;20.10;;
19171;SDS011;9718;52.200;21.052;2022-11-20T09:55:37;39.83;;;20.97;;
19171;SDS011;9718;52.200;21.052;2022-11-20T09:58:06;43.77;;;20.30;;
19171;SDS011;9718;52.200;21.052;2022-11-20T10:00:39;41.17;;;20.90;;
19171;SDS011;9718;52.200;21.052;2022-11-20T10:03:15;37.63;;;19.23;;
19171;SDS011;9718;52.200;21.052;2022-11-20T10:05:51;44.53;;;20.83;;
19171;SDS011;9718;52.200;21.052;2022-11-20T10:10:53;36.83;;;19.73;;
19171;SDS011;9718;52.200;21.052;2022-11-20T10:14:03;38.13;;;20.10;;
19171;SDS011;9718;52.200;21.052;2022-11-20T10:19:42;39.03;;;20.23;;
19171;SDS011;9718;52.200;21.052;2022-11-20T10:30:45;37.03;;;19.43;;
19171;SDS011;9718;52.200;21.052;2022-11-20T10:33:18;37.70;;;19.97;;
19171;SDS011;9718;52.200;21.052;2022-11-20T10:38:37;38.77;;;20.00;;
19171;SDS011;9718;52.200;21.052;2022-11-20T10:41:36;42.27;;;20.07;;
19171;SDS011;9718;52.200;21.052;2022-11-20T10:44:17;38.37;;;20.00;;
19171;SDS011;9718;52.200;21.052;2022-11-20T10:47:08;44.40;;;19.53;;
19171;SDS011;9718;52.200;21.052;2022-11-20T10:49:51;39.63;;;19.53;;
19171;SDS011;9718;52.200;21.052;2022-11-20T11:00:31;40.03;;;20.57;;
19171;SDS011;9718;52.200;21.052;2022-11-20T11:02:59;39.23;;;18.90;;
19171;SDS011;9718;52.200;21.052;2022-11-20T11:05:32;39.33;;;19.80;;
19171;SDS011;9718;52.200;21.052;2022-11-20T11:08:01;39.13;;;19.60;;
19171;SDS011;9718;52.200;21.052;2022-11-20T11:13:25;44.60;;;19.67;;
19171;SDS011;9718;52.200;21.052;2022-11-20T11:15:54;35.03;;;19.00;;
19171;SDS011;9718;52.200;21.052;2022-11-20T11:18:26;41.60;;;18.83;;
19171;SDS011;9718;52.200;21.052;2022-11-20T11:21:02;41.47;;;20.20;;
19171;SDS011;9718;52.200;21.052;2022-11-20T11:26:07;39.20;;;19.50;;
19171;SDS011;9718;52.200;21.052;2022-11-20T11:28:59;35.73;;;19.57;;
19171;SDS011;9718;52.200;21.052;2022-11-20T11:31:31;38.10;;;19.47;;
19171;SDS011;9718;52.200;21.052;2022-11-20T11:34:10;37.77;;;18.33;;
19171;SDS011;9718;52.200;21.052;2022-11-20T11:36:38;37.67;;;19.50;;
19171;SDS011;9718;52.200;21.052;2022-11-20T11:39:10;35.50;;;19.43;;
19171;SDS011;9718;52.200;21.052;2022-11-20T11:41:43;41.40;;;19.03;;
19171;SDS011;9718;52.200;21.052;2022-11-20T11:44:28;35.87;;;19.03;;
19171;SDS011;9718;52.200;21.052;2022-11-20T11:47:24;39.67;;;20.47;;
19171;SDS011;9718;52.200;21.052;2022-11-20T11:52:38;44.73;;;20.20;;
19171;SDS011;9718;52.200;21.052;2022-11-20T11:55:20;41.23;;;19.77;;
19171;SDS011;9718;52.200;21.052;2022-11-20T12:01:51;40.90;;;18.57;;
19171;SDS011;9718;52.200;21.052;2022-11-20T12:04:22;41.10;;;20.03;;
19171;SDS011;9718;52.200;21.052;2022-11-20T12:13:35;37.97;;;18.97;;
19171;SDS011;9718;52.200;21.052;2022-11-20T12:16:13;39.53;;;19.73;;
19171;SDS011;9718;52.200;21.052;2022-11-20T12:18:49;44.93;;;20.00;;
19171;SDS011;9718;52.200;21.052;2022-11-20T12:21:19;38.30;;;18.20;;
19171;SDS011;9718;52.200;21.052;2022-11-20T12:32:06;41.30;;;20.30;;
19171;SDS011;9718;52.200;21.052;2022-11-20T12:35:00;38.30;;;18.43;;
19171;SDS011;9718;52.200;21.052;2022-11-20T12:38:00;41.83;;;18.97;;
19171;SDS011;9718;52.200;21.052;2022-11-20T12:43:37;38.57;;;18.27;;
19171;SDS011;9718;52.200;21.052;2022-11-20T12:46:41;43.97;;;19.07;;
19171;SDS011;9718;52.200;21.052;2022-11-20T13:00:19;39.37;;;18.70;;
19171;SDS011;9718;52.200;21.052;2022-11-20T13:05:48;39.90;;;19.30;;
19171;SDS011;9718;52.200;21.052;2022-11-20T13:08:20;39.13;;;19.63;;
19171;SDS011;9718;52.200;21.052;2022-11-20T13:10:58;42.93;;;19.73;;
19171;SDS011;9718;52.200;21.052;2022-11-20T13:19:55;37.30;;;17.27;;
19171;SDS011;9718;52.200;21.052;2022-11-20T13:22:26;39.87;;;17.63;;
19171;SDS011;9718;52.200;21.052;2022-11-20T13:24:55;43.10;;;19.67;;
19171;SDS011;9718;52.200;21.052;2022-11-20T13:27:23;40.67;;;18.50;;
19171;SDS011;9718;52.200;21.052;2022-11-20T13:30:01;40.73;;;19.60;;
19171;SDS011;9718;52.200;21.052;2022-11-20T13:32:50;39.43;;;19.57;;
19171;SDS011;9718;52.200;21.052;2022-11-20T13:35:40;43.53;;;18.33;;
19171;SDS011;9718;52.200;21.052;2022-11-20T13:38:10;39.37;;;19.63;;
19171;SDS011;9718;52.200;21.052;2022-11-20T13:43:49;42.70;;;19.17;;
19171;SDS011;9718;52.200;21.052;2022-11-20T13:46:19;41.60;;;19.37;;
19171;SDS011;9718;52.200;21.052;2022-11-20T13:48:51;40.40;;;18.47;;
19171;SDS011;9718;52.200;21.052;2022-11-20T13:51:33;38.93;;;17.93;;
19171;SDS011;9718;52.200;21.052;2022-11-20T14:02:29;36.40;;;17.13;;
19171;SDS011;9718;52.200;21.052;2022-11-20T14:04:58;37.53;;;18.23;;
19171;SDS011;9718;52.200;21.052;2022-11-20T14:07:31;45.80;;;19.83;;
19171;SDS011;9718;52.200;21.052;2022-11-20T14:10:06;42.67;;;19.17;;
19171;SDS011;9718;52.200;21.052;2022-11-20T14:12:45;39.80;;;18.07;;
19171;SDS011;9718;52.200;21.052;2022-11-20T14:15:30;33.17;;;16.93;;
19171;SDS011;9718;52.200;21.052;2022-11-20T14:18:10;38.87;;;18.07;;
19171;SDS011;9718;52.200;21.052;2022-11-20T14:20:42;38.07;;;17.53;;
19171;SDS011;9718;52.200;21.052;2022-11-20T14:23:22;39.13;;;17.13;;
19171;SDS011;9718;52.200;21.052;2022-11-20T14:25:55;40.13;;;17.70;;
19171;SDS011;9718;52.200;21.052;2022-11-20T14:28:27;42.80;;;18.90;;
19171;SDS011;9718;52.200;21.052;2022-11-20T14:30:58;42.20;;;18.53;;
19171;SDS011;9718;52.200;21.052;2022-11-20T14:33:25;40.03;;;17.00;;
19171;SDS011;9718;52.200;21.052;2022-11-20T14:35:54;37.33;;;17.13;;
19171;SDS011;9718;52.200;21.052;2022-11-20T14:38:25;40.30;;;17.83;;
19171;SDS011;9718;52.200;21.052;2022-11-20T14:41:09;41.43;;;16.10;;
19171;SDS011;9718;52.200;21.052;2022-11-20T14:43:56;36.27;;;16.70;;
19171;SDS011;9718;52.200;21.052;2022-11-20T14:46:24;41.10;;;17.03;;
19171;SDS011;9718;52.200;21.052;2022-11-20T14:48:54;42.67;;;16.80;;
19171;SDS011;9718;52.200;21.052;2022-11-20T14:51:26;37.17;;;15.67;;
19171;SDS011;9718;52.200;21.052;2022-11-20T14:56:39;35.80;;;15.87;;
19171;SDS011;9718;52.200;21.052;2022-11-20T14:59:08;40.27;;;17.80;;
19171;SDS011;9718;52.200;21.052;2022-11-20T15:01:36;39.67;;;16.83;;
19171;SDS011;9718;52.200;21.052;2022-11-20T15:04:09;42.53;;;18.53;;
19171;SDS011;9718;52.200;21.052;2022-11-20T15:06:38;42.93;;;18.00;;
19171;SDS011;9718;52.200;21.052;2022-11-20T15:09:20;39.17;;;18.80;;
19171;SDS011;9718;52.200;21.052;2022-11-20T15:11:58;46.43;;;17.50;;
19171;SDS011;9718;52.200;21.052;2022-11-20T15:14:30;39.50;;;17.20;;
19171;SDS011;9718;52.200;21.052;2022-11-20T15:17:01;36.77;;;17.70;;
19171;SDS011;9718;52.200;21.052;2022-11-20T15:19:29;37.63;;;17.40;;
19171;SDS011;9718;52.200;21.052;2022-11-20T15:21:56;39.03;;;17.53;;
19171;SDS011;9718;52.200;21.052;2022-11-20T15:24:25;38.17;;;18.10;;
19171;SDS011;9718;52.200;21.052;2022-11-20T15:26:52;43.20;;;18.60;;
19171;SDS011;9718;52.200;21.052;2022-11-20T15:29:20;38.40;;;17.13;;
19171;SDS011;9718;52.200;21.052;2022-11-20T15:31:49;40.63;;;17.30;;
19171;SDS011;9718;52.200;21.052;2022-11-20T15:34:19;38.63;;;17.47;;
19171;SDS011;9718;52.200;21.052;2022-11-20T15:36:47;41.03;;;17.97;;
19171;SDS011;9718;52.200;21.052;2022-11-20T15:39:15;42.40;;;17.37;;
19171;SDS011;9718;52.200;21.052;2022-11-20T15:41:42;44.80;;;18.73;;
19171;SDS011;9718;52.200;21.052;2022-11-20T15:44:10;39.60;;;16.97;;
19171;SDS011;9718;52.200;21.052;2022-11-20T15:46:38;38.20;;;17.63;;
19171;SDS011;9718;52.200;21.052;2022-11-20T15:49:10;40.00;;;16.70;;
19171;SDS011;9718;52.200;21.052;2022-11-20T15:51:41;40.90;;;17.10;;
19171;SDS011;9718;52.200;21.052;2022-11-20T15:56:42;41.90;;;16.87;;
19171;SDS011;9718;52.200;21.052;2022-11-20T15:59:09;46.77;;;17.70;;
19171;SDS011;9718;52.200;21.052;2022-11-20T16:01:38;40.57;;;16.93;;
19171;SDS011;9718;52.200;21.052;2022-11-20T16:04:09;39.57;;;16.53;;
19171;SDS011;9718;52.200;21.052;2022-11-20T16:06:41;42.90;;;17.40;;
19171;SDS011;9718;52.200;21.052;2022-11-20T16:09:08;42.57;;;17.27;;
19171;SDS011;9718;52.200;21.052;2022-11-20T16:11:37;35.80;;;15.90;;
19171;SDS011;9718;52.200;21.052;2022-11-20T16:14:05;44.30;;;17.47;;
19171;SDS011;9718;52.200;21.052;2022-11-20T16:16:51;37.17;;;16.20;;
19171;SDS011;9718;52.200;21.052;2022-11-20T16:19:19;35.20;;;16.57;;
19171;SDS011;9718;52.200;21.052;2022-11-20T16:21:48;40.40;;;16.90;;
19171;SDS011;9718;52.200;21.052;2022-11-20T16:24:20;39.97;;;16.60;;
19171;SDS011;9718;52.200;21.052;2022-11-20T16:26:47;45.67;;;18.50;;
19171;SDS011;9718;52.200;21.052;2022-11-20T16:29:15;34.63;;;16.00;;
19171;SDS011;9718;52.200;21.052;2022-11-20T16:31:42;42.13;;;17.73;;
19171;SDS011;9718;52.200;21.052;2022-11-20T16:34:10;34.87;;;16.20;;
19171;SDS011;9718;52.200;21.052;2022-11-20T16:36:39;40.90;;;17.40;;
19171;SDS011;9718;52.200;21.052;2022-11-20T16:39:08;39.87;;;17.17;;
19171;SDS011;9718;52.200;21.052;2022-11-20T16:41:35;39.93;;;16.97;;
19171;SDS011;9718;52.200;21.052;2022-11-20T16:44:07;47.77;;;19.10;;
19171;SDS011;9718;52.200;21.052;2022-11-20T16:46:37;45.10;;;17.13;;
19171;SDS011;9718;52.200;21.052;2022-11-20T16:49:11;37.90;;;16.53;;
19171;SDS011;9718;52.200;21.052;2022-11-20T16:51:39;38.77;;;16.60;;
19171;SDS011;9718;52.200;21.052;2022-11-20T16:54:08;38.00;;;16.97;;